Blythe Airport Blythe US
ICAO: KBLH
IATA: BLH
Category: Medium
Scheduled Services: No

Elevation: 399 ft
TransAlt. 18000 ft.

Airport Communications:
ASOS:120.175
LOS ANGELES CNTR:128.15
RIVERSIDE RDO:122.4
CTAF/UNICOM:122.8

KBLH Zoom In..

Runways:

(A) RW 08 length 6543 ft width 150 ft
---- / hdg 77

(B) RW 17 length 5800 ft width 100 ft
---- / hdg 167

(C) RW 26 length 6543 ft width 150 ft
---- / hdg 257

(D) RW 35 length 5800 ft width 100 ft
---- / hdg 347

Location; KBLH
Day. 21 / Time. 14.52 Zulu
* Altimeter: 29.72
* Temperature: 23° c. 73.4°f.
* Wind from: 170° Speed 09 kn.
Dewpoint: 07° c.
Visibility: 10 Statute Miles.
Clouds: Clear (automated report).

KBLH 211452Z AUTO 17009KT 10SM CLR 23/07 A2972 RMK AO2 SLP059 T02280072


Wind From 170°
Speed 09 kn.

 
 
jpsmedia.com for Web Design SOUNDCLOUD worldairports.se 2018   terms of use